Hovedside
METAR-TAF:

METAR-TAF

Lufthavner :

Bamako-Sénou internasjonale lufthavn

Bamako, Mali

breddegrad: 12-32N, lengdegrad: 007-57W, høyde over havet: 380 m

Gjeldene værobservasjon

Denne rapporten ble laget for 36 minutter siden, klokken 12:00 UTC
Vind 7 kt fra Sør-sørøst, skiftende mellom Øst-sørøst og Sør
Temperatur 35°C
Luftfuktighet 44%
Trykk 1013 hPa
Sikt 10 km eller mer
Få skyer i en høyde av 2500 ft

METAR: GABS 251200Z 15007KT 120V190 9999 FEW025 35/21 Q1013 NOSIG

Tid: 12:36 (12:36 UTC)

Varsel

Denne rapporten ble laget for 1 time og 6 minutter siden, klokken 11:30 UTC
Varsel gyldig fra 25. klokken 12 UTC til 26. klokken 18 UTC
Vind 8 kt fra Sørvest
Sikt 10 km eller mer
Få skyer i en høyde av 2500 ft
Sannsynlighet 40% :
Midlertidig
fra 25. klokken 17 UTC til 25. klokken 22 UTC
Spredte skyer i en høyde av 2500 ft
Få skyer i en høyde av 3300 ft, Bygeskyer.
torden,

TAF: GABS 251130Z 2512/2618 22008KT 9999 FEW025 PROB40 TEMPO 2517/2522 TS SCT025 FEW033CB

Værobservasjoner og værvarsel for over 4000 flyplasser (METAR- og TAF-rapporter).

Tilgjengelige stasjoner er representert av de røde og gule prikkene på kartet.

Hold musepekeren over prikken for å se navnet på stasjonen.

Klikk så for å se værobservasjoner og -varsler.

For å forandre kartet kan du klikke på den grønne knappen med svart kryss for å zoome inn, på den grønne knappen med strek for å zoome ut, eller på de grønne pilene for å se tilstøtende kart.


METAR-TAF: